createdAt,value
2019-04-10T00:00:08.788Z,99392.00
2019-04-10T00:02:42.401Z,99394.34
2019-04-10T00:05:16.367Z,99392.62
2019-04-10T00:07:50.254Z,99394.83
2019-04-10T00:10:23.627Z,99395.89
2019-04-10T00:12:58.286Z,99397.00
2019-04-10T00:15:32.673Z,99397.66
2019-04-10T00:18:07.373Z,99393.91
2019-04-10T00:20:40.637Z,99398.39
2019-04-10T00:23:15.182Z,99393.92
2019-04-10T00:25:48.835Z,99390.00
2019-04-10T00:28:23.421Z,99391.80
2019-04-10T00:30:57.758Z,99390.53
2019-04-10T00:33:30.476Z,99394.92
2019-04-10T00:36:03.982Z,99395.55
2019-04-10T00:38:37.977Z,99392.63
2019-04-10T00:41:12.206Z,99396.62
2019-04-10T00:43:45.415Z,99405.52
2019-04-10T00:46:19.078Z,99405.85
2019-04-10T00:48:52.390Z,99409.58
2019-04-10T00:51:25.997Z,99412.13
2019-04-10T00:54:00.067Z,99408.67
2019-04-10T00:56:34.745Z,99406.68
2019-04-10T00:59:08.949Z,99405.98
2019-04-10T01:01:43.714Z,99408.04
2019-04-10T01:04:18.187Z,99408.10
2019-04-10T01:06:52.523Z,99406.56
2019-04-10T01:09:26.503Z,99410.39
2019-04-10T01:12:00.423Z,99408.92
2019-04-10T01:14:34.401Z,99411.98
2019-04-10T01:17:08.314Z,99409.30
2019-04-10T01:19:42.381Z,99412.38
2019-04-10T01:22:17.037Z,99413.98
2019-04-10T01:24:52.239Z,99418.50
2019-04-10T01:27:26.253Z,99416.95
2019-04-10T01:30:00.140Z,99420.17
2019-04-10T01:32:34.234Z,99414.73
2019-04-10T01:35:07.880Z,99416.52
2019-04-10T01:37:49.423Z,99417.22
2019-04-10T01:40:19.141Z,99415.78
2019-04-10T01:43:02.745Z,99415.56
2019-04-10T01:45:29.294Z,99414.09
2019-04-10T01:48:03.676Z,99409.11
2019-04-10T01:50:37.416Z,99412.83
2019-04-10T01:53:11.337Z,99409.44
2019-04-10T01:55:45.545Z,99412.17
2019-04-10T01:58:21.320Z,99415.06
2019-04-10T02:01:01.822Z,99416.59
2019-04-10T02:03:36.237Z,99421.50
2019-04-10T02:06:11.177Z,99418.18
2019-04-10T02:08:45.749Z,99416.09
2019-04-10T02:11:19.916Z,99410.10
2019-04-10T02:13:53.989Z,99418.25
2019-04-10T02:16:28.072Z,99413.53
2019-04-10T02:19:01.991Z,99418.71
2019-04-10T02:21:36.006Z,99420.64
2019-04-10T02:24:11.090Z,99415.91
2019-04-10T02:26:45.626Z,99410.53
2019-04-10T02:29:19.758Z,99411.22
2019-04-10T02:31:54.945Z,99404.01
2019-04-10T02:34:28.547Z,99410.16
2019-04-10T02:37:02.741Z,99409.33
2019-04-10T02:39:44.088Z,99403.04
2019-04-10T02:42:12.507Z,99405.60
2019-04-10T02:44:48.091Z,99405.27
2019-04-10T02:47:21.346Z,99402.16
2019-04-10T02:49:56.722Z,99400.33
2019-04-10T02:52:30.882Z,99403.98
2019-04-10T02:55:06.001Z,99407.27
2019-04-10T02:57:41.370Z,99400.77
2019-04-10T03:00:15.465Z,99408.08
2019-04-10T03:02:50.155Z,99404.25
2019-04-10T03:05:27.234Z,99406.91
2019-04-10T03:08:01.304Z,99406.98
2019-04-10T03:10:41.904Z,99403.12
2019-04-10T03:13:11.683Z,99406.22
2019-04-10T03:15:47.507Z,99407.05
2019-04-10T03:18:21.224Z,99408.55
2019-04-10T03:20:54.789Z,99405.72
2019-04-10T03:23:29.461Z,99405.55
2019-04-10T03:26:03.629Z,99407.21
2019-04-10T03:28:37.552Z,99410.00
2019-04-10T03:31:12.919Z,99407.75
2019-04-10T03:34:06.687Z,99406.42
2019-04-10T03:36:41.329Z,99408.34
2019-04-10T03:39:15.248Z,99401.53
2019-04-10T03:41:50.482Z,99407.52
2019-04-10T03:44:25.004Z,99403.00
2019-04-10T03:46:59.046Z,99401.70
2019-04-10T03:49:32.585Z,99399.53
2019-04-10T03:52:07.240Z,99398.77
2019-04-10T03:54:40.604Z,99402.92
2019-04-10T03:57:14.312Z,99406.05
2019-04-10T03:59:47.598Z,99412.27
2019-04-10T04:02:21.927Z,99408.24
2019-04-10T04:04:55.953Z,99407.41
2019-04-10T04:07:30.412Z,99411.50
2019-04-10T04:10:04.312Z,99413.77
2019-04-10T04:12:39.075Z,99415.86
2019-04-10T04:15:13.557Z,99420.61
2019-04-10T04:17:48.500Z,99427.42
2019-04-10T04:20:21.647Z,99423.03
2019-04-10T04:22:55.435Z,99425.06
2019-04-10T04:25:30.319Z,99422.14
2019-04-10T04:28:04.622Z,99422.70
2019-04-10T04:30:40.519Z,99426.85
2019-04-10T04:33:15.340Z,99421.04
2019-04-10T04:35:49.027Z,99429.45
2019-04-10T04:38:23.656Z,99429.61
2019-04-10T04:40:58.219Z,99433.17
2019-04-10T04:43:33.065Z,99430.95
2019-04-10T04:46:07.931Z,99434.37
2019-04-10T04:48:41.448Z,99439.45
2019-04-10T04:51:15.420Z,99440.28
2019-04-10T04:53:48.943Z,99442.81
2019-04-10T04:56:22.214Z,99442.64
2019-04-10T04:58:56.131Z,99442.08
2019-04-10T05:01:29.830Z,99443.91
2019-04-10T05:04:03.490Z,99445.50
2019-04-10T05:06:37.196Z,99449.66
2019-04-10T05:09:11.321Z,99454.14
2019-04-10T05:11:45.250Z,99449.82
2019-04-10T05:14:19.593Z,99460.30
2019-04-10T05:16:53.807Z,99458.50
2019-04-10T05:19:27.575Z,99459.42
2019-04-10T05:22:00.445Z,99462.52
2019-04-10T05:24:36.293Z,99463.69
2019-04-10T05:27:10.365Z,99464.21
2019-04-10T05:29:45.055Z,99467.97
2019-04-10T05:32:19.904Z,99466.23
2019-04-10T05:34:54.556Z,99465.50
2019-04-10T05:37:29.616Z,99470.92
2019-04-10T05:40:04.022Z,99468.94
2019-04-10T05:42:37.745Z,99470.92
2019-04-10T05:45:12.682Z,99464.30
2019-04-10T05:47:46.678Z,99469.83
2019-04-10T05:50:21.446Z,99467.69
2019-04-10T05:52:55.978Z,99468.19
2019-04-10T05:55:30.762Z,99470.16
2019-04-10T05:58:05.080Z,99470.52
2019-04-10T06:00:38.867Z,99476.44
2019-04-10T06:03:12.438Z,99478.00
2019-04-10T06:05:46.679Z,99480.83
2019-04-10T06:08:20.259Z,99474.87
2019-04-10T06:10:54.064Z,99474.06
2019-04-10T06:13:27.715Z,99471.73
2019-04-10T06:16:01.687Z,99466.58
2019-04-10T06:18:35.819Z,99465.45
2019-04-10T06:21:10.430Z,99465.41
2019-04-10T06:23:44.729Z,99465.66
2019-04-10T06:26:19.672Z,99457.27
2019-04-10T06:28:54.723Z,99463.45
2019-04-10T06:31:28.836Z,99462.84
2019-04-10T06:34:02.824Z,99468.28
2019-04-10T06:36:37.483Z,99463.62
2019-04-10T06:39:12.923Z,99462.78
2019-04-10T06:41:47.331Z,99464.23
2019-04-10T06:44:21.813Z,99469.44
2019-04-10T06:46:55.437Z,99464.28
2019-04-10T06:49:29.555Z,99464.46
2019-04-10T06:52:03.767Z,99460.70
2019-04-10T06:54:38.336Z,99456.16
2019-04-10T06:57:13.054Z,99460.09
2019-04-10T06:59:46.863Z,99461.30
2019-04-10T07:02:27.060Z,99461.72
2019-04-10T07:05:02.504Z,99466.80
2019-04-10T07:07:45.475Z,99466.03
2019-04-10T07:10:20.642Z,99467.87
2019-04-10T07:12:42.101Z,99468.59
2019-04-10T07:15:19.632Z,99472.39
2019-04-10T07:17:51.387Z,99472.69
2019-04-10T07:20:26.159Z,99474.95
2019-04-10T07:23:00.664Z,99473.63
2019-04-10T07:25:34.065Z,99470.88
2019-04-10T07:28:09.746Z,99467.72
2019-04-10T07:30:44.285Z,99467.79
2019-04-10T07:33:19.629Z,99473.81
2019-04-10T07:35:56.515Z,99481.90
2019-04-10T07:38:29.484Z,99481.48
2019-04-10T07:41:07.130Z,99485.84
2019-04-10T07:43:39.186Z,99483.25
2019-04-10T07:46:13.171Z,99486.08
2019-04-10T07:48:47.970Z,99488.84
2019-04-10T07:51:22.565Z,99492.73
2019-04-10T07:53:56.127Z,99491.17
2019-04-10T07:56:31.202Z,99494.92
2019-04-10T07:59:05.315Z,99494.77
2019-04-10T08:01:40.392Z,99503.80
2019-04-10T08:04:16.019Z,99506.03
2019-04-10T08:06:50.209Z,99508.96
2019-04-10T08:09:24.526Z,99507.13
2019-04-10T08:11:58.857Z,99505.05
2019-04-10T08:14:32.841Z,99514.66
2019-04-10T08:17:06.220Z,99509.89
2019-04-10T08:19:41.145Z,99512.81
2019-04-10T08:22:15.406Z,99511.09
2019-04-10T08:24:49.395Z,99515.28
2019-04-10T08:27:23.528Z,99515.02
2019-04-10T08:29:57.423Z,99511.13
2019-04-10T08:32:32.221Z,99510.34
2019-04-10T08:35:07.525Z,99506.44
2019-04-10T08:37:42.944Z,99503.94
2019-04-10T08:40:18.998Z,99506.08
2019-04-10T08:42:53.500Z,99504.94
2019-04-10T08:45:38.541Z,99506.25
2019-04-10T08:48:03.496Z,99500.98
2019-04-10T08:50:38.262Z,99507.58
2019-04-10T08:53:11.746Z,99506.83
2019-04-10T08:55:44.554Z,99502.03
2019-04-10T08:58:17.043Z,99500.19
2019-04-10T09:00:52.344Z,99493.25
2019-04-10T09:03:25.197Z,99490.23
2019-04-10T09:05:59.073Z,99487.15
2019-04-10T09:08:32.906Z,99483.55
2019-04-10T09:11:07.184Z,99482.45
2019-04-10T09:13:41.457Z,99480.77
2019-04-10T09:16:15.345Z,99481.18
2019-04-10T09:18:48.255Z,99480.44
2019-04-10T09:21:21.831Z,99477.34
2019-04-10T09:23:56.217Z,99478.70
2019-04-10T09:26:29.351Z,99492.21
2019-04-10T09:29:02.534Z,99486.77
2019-04-10T09:31:35.402Z,99486.34
2019-04-10T09:34:09.668Z,99485.34
2019-04-10T09:36:41.906Z,99485.02
2019-04-10T09:39:19.172Z,99489.87
2019-04-10T09:41:54.347Z,99488.25
2019-04-10T09:44:29.772Z,99494.15
2019-04-10T09:47:05.566Z,99489.46
2019-04-10T09:49:43.157Z,99486.98
2019-04-10T09:52:14.725Z,99485.47
2019-04-10T09:54:50.892Z,99483.72
2019-04-10T09:57:24.730Z,99486.33
2019-04-10T09:59:59.085Z,99488.56
2019-04-10T10:02:33.728Z,99482.45
2019-04-10T10:05:06.626Z,99477.30
2019-04-10T10:07:41.209Z,99473.11
2019-04-10T10:10:17.094Z,99476.38
2019-04-10T10:12:52.658Z,99479.43
2019-04-10T10:15:25.345Z,99480.50
2019-04-10T10:17:59.265Z,99476.89
2019-04-10T10:20:33.376Z,99481.73
2019-04-10T10:23:07.569Z,99476.17
2019-04-10T10:25:41.893Z,99479.05
2019-04-10T10:28:15.447Z,99473.98
2019-04-10T10:30:49.499Z,99483.52
2019-04-10T10:33:23.931Z,99481.03
2019-04-10T10:35:57.788Z,99478.43
2019-04-10T10:38:31.985Z,99477.08
2019-04-10T10:41:06.718Z,99479.70
2019-04-10T10:43:40.814Z,99478.78
2019-04-10T10:46:15.454Z,99486.22
2019-04-10T10:48:49.746Z,99486.20
2019-04-10T10:51:23.662Z,99480.89
2019-04-10T10:54:00.082Z,99480.80
2019-04-10T10:56:32.779Z,99475.65
2019-04-10T10:59:06.769Z,99474.53
2019-04-10T11:01:41.864Z,99471.33
2019-04-10T11:04:15.796Z,99475.48
2019-04-10T11:06:58.861Z,99472.98
2019-04-10T11:09:26.234Z,99473.91
2019-04-10T11:12:00.199Z,99478.13
2019-04-10T11:14:35.326Z,99479.88
2019-04-10T11:17:09.400Z,99479.47
2019-04-10T11:19:45.593Z,99479.59
2019-04-10T11:22:22.679Z,99473.77
2019-04-10T11:24:57.533Z,99475.61
2019-04-10T11:27:31.809Z,99475.49
2019-04-10T11:30:05.531Z,99480.80
2019-04-10T11:32:38.959Z,99484.05
2019-04-10T11:35:13.128Z,99481.63
2019-04-10T11:37:51.127Z,99484.55
2019-04-10T11:40:23.644Z,99483.58
2019-04-10T11:43:02.401Z,99484.73
2019-04-10T11:45:41.868Z,99485.63
2019-04-10T11:48:10.356Z,99475.00
2019-04-10T11:50:44.517Z,99475.82
2019-04-10T11:53:18.731Z,99474.54
2019-04-10T11:55:53.573Z,99471.70
2019-04-10T11:58:28.918Z,99469.96
2019-04-10T12:01:05.270Z,99473.36
2019-04-10T12:03:43.333Z,99470.76
2019-04-10T12:06:13.650Z,99470.11
2019-04-10T12:09:08.536Z,99474.95
2019-04-10T12:11:21.740Z,99471.27
2019-04-10T12:13:56.730Z,99468.70
2019-04-10T12:16:31.365Z,99473.61
2019-04-10T12:19:04.727Z,99472.46
2019-04-10T12:21:38.003Z,99472.63
2019-04-10T12:24:12.858Z,99471.98
2019-04-10T12:26:45.956Z,99472.55
2019-04-10T12:29:19.413Z,99468.88
2019-04-10T12:31:52.967Z,99466.26
2019-04-10T12:34:27.088Z,99473.94
2019-04-10T12:37:00.428Z,99475.20
2019-04-10T12:39:33.641Z,99469.33
2019-04-10T12:42:07.940Z,99474.53
2019-04-10T12:44:41.077Z,99467.37
2019-04-10T12:47:15.444Z,99469.03
2019-04-10T12:49:49.910Z,99470.41
2019-04-10T12:52:22.832Z,99468.98
2019-04-10T12:54:55.844Z,99464.43
2019-04-10T12:57:28.620Z,99467.36
2019-04-10T13:00:04.645Z,99467.23
2019-04-10T13:02:36.868Z,99458.62
2019-04-10T13:05:09.601Z,99459.92
2019-04-10T13:07:43.581Z,99457.95
2019-04-10T13:10:18.328Z,99461.09
2019-04-10T13:12:52.035Z,99464.22
2019-04-10T13:15:25.739Z,99464.36
2019-04-10T13:17:58.749Z,99464.32
2019-04-10T13:20:31.641Z,99461.69
2019-04-10T13:23:04.653Z,99460.59
2019-04-10T13:25:37.221Z,99460.98
2019-04-10T13:28:11.532Z,99461.22
2019-04-10T13:30:51.557Z,99463.99
2019-04-10T13:33:19.167Z,99468.84
2019-04-10T13:35:55.624Z,99469.19
2019-04-10T13:38:32.372Z,99469.59
2019-04-10T13:41:03.960Z,99465.19
2019-04-10T13:43:36.794Z,99464.47
2019-04-10T13:46:12.950Z,99462.89
2019-04-10T13:48:45.582Z,99472.84
2019-04-10T13:51:19.098Z,99471.48
2019-04-10T13:53:55.237Z,99471.86
2019-04-10T13:56:29.045Z,99472.20
2019-04-10T13:59:04.751Z,99473.23
2019-04-10T14:01:38.435Z,99473.35
2019-04-10T14:04:14.668Z,99477.80
2019-04-10T14:06:49.350Z,99476.40
2019-04-10T14:09:34.834Z,99474.73
2019-04-10T14:11:59.778Z,99475.22
2019-04-10T14:14:33.490Z,99472.14
2019-04-10T14:17:07.333Z,99473.12
2019-04-10T14:19:41.494Z,99473.55
2019-04-10T14:22:15.625Z,99468.73
2019-04-10T14:24:51.167Z,99478.45
2019-04-10T14:27:30.178Z,99483.19
2019-04-10T14:30:05.087Z,99481.21
2019-04-10T14:32:40.124Z,99478.95
2019-04-10T14:35:14.808Z,99479.02
2019-04-10T14:37:49.665Z,99478.45
2019-04-10T14:40:24.313Z,99478.92
2019-04-10T14:42:59.702Z,99479.55
2019-04-10T14:45:35.488Z,99475.30
2019-04-10T14:48:09.625Z,99475.25
2019-04-10T14:50:44.212Z,99477.65
2019-04-10T14:53:19.306Z,99480.99
2019-04-10T14:55:53.582Z,99480.64
2019-04-10T14:58:30.630Z,99487.60
2019-04-10T15:01:06.966Z,99482.59
2019-04-10T15:03:40.383Z,99484.64
2019-04-10T15:06:15.427Z,99492.67
2019-04-10T15:08:50.290Z,99489.66
2019-04-10T15:11:24.770Z,99486.78
2019-04-10T15:13:59.271Z,99491.28
2019-04-10T15:16:33.597Z,99491.86
2019-04-10T15:19:07.975Z,99496.22
2019-04-10T15:21:43.029Z,99484.97
2019-04-10T15:24:17.483Z,99490.55
2019-04-10T15:26:51.351Z,99491.97
2019-04-10T15:29:25.075Z,99493.41
2019-04-10T15:31:59.988Z,99498.20
2019-04-10T15:34:35.322Z,99497.48
2019-04-10T15:37:10.932Z,99501.52
2019-04-10T15:39:46.286Z,99506.78
2019-04-10T15:42:19.953Z,99506.20
2019-04-10T15:44:54.474Z,99505.94
2019-04-10T15:47:52.560Z,99506.19
2019-04-10T15:50:24.310Z,99515.00
2019-04-10T15:52:58.055Z,99510.23
2019-04-10T15:55:32.628Z,99509.84
2019-04-10T15:58:08.629Z,99512.77
2019-04-10T16:00:43.463Z,99515.44
2019-04-10T16:03:18.111Z,99515.70
2019-04-10T16:05:52.024Z,99512.36
2019-04-10T16:08:26.146Z,99515.61
2019-04-10T16:11:09.913Z,99514.45
2019-04-10T16:13:54.872Z,99518.23
2019-04-10T16:16:44.406Z,99520.23
2019-04-10T16:19:33.004Z,99516.10
2019-04-10T16:22:13.457Z,99521.31
2019-04-10T16:24:47.191Z,99519.45
2019-04-10T16:27:22.137Z,99519.15
2019-04-10T16:29:56.618Z,99520.52
2019-04-10T16:32:31.042Z,99526.84
2019-04-10T16:35:05.196Z,99523.77
2019-04-10T16:37:39.881Z,99536.06
2019-04-10T16:40:14.980Z,99533.23
2019-04-10T16:42:49.216Z,99532.40
2019-04-10T16:45:23.148Z,99534.16
2019-04-10T16:47:57.030Z,99529.91
2019-04-10T16:50:31.154Z,99532.66
2019-04-10T16:53:05.668Z,99532.50
2019-04-10T16:55:38.931Z,99532.59
2019-04-10T16:58:13.743Z,99531.86
2019-04-10T17:00:47.798Z,99533.70
2019-04-10T17:03:22.025Z,99536.63
2019-04-10T17:05:57.628Z,99537.78
2019-04-10T17:08:32.213Z,99545.48
2019-04-10T17:11:07.139Z,99546.64
2019-04-10T17:13:42.544Z,99551.33
2019-04-10T17:16:17.723Z,99550.75
2019-04-10T17:18:52.128Z,99547.61
2019-04-10T17:21:28.108Z,99551.19
2019-04-10T17:24:01.914Z,99554.95
2019-04-10T17:26:37.058Z,99556.55
2019-04-10T17:29:10.737Z,99562.14
2019-04-10T17:31:45.089Z,99558.72
2019-04-10T17:34:19.297Z,99561.29
2019-04-10T17:36:53.582Z,99563.14
2019-04-10T17:39:28.088Z,99564.57
2019-04-10T17:42:03.923Z,99568.58
2019-04-10T17:44:38.287Z,99568.81
2019-04-10T17:47:12.568Z,99578.41
2019-04-10T17:49:47.671Z,99581.60
2019-04-10T17:52:24.872Z,99586.10
2019-04-10T17:54:59.095Z,99593.52
2019-04-10T17:57:38.491Z,99593.20
2019-04-10T18:00:16.026Z,99596.61
2019-04-10T18:02:50.884Z,99602.45
2019-04-10T18:05:24.938Z,99610.29
2019-04-10T18:07:58.678Z,99616.05
2019-04-10T18:10:43.565Z,99614.45
2019-04-10T18:13:08.386Z,99613.97
2019-04-10T18:15:42.039Z,99610.63
2019-04-10T18:18:15.633Z,99611.05
2019-04-10T18:20:49.955Z,99613.80
2019-04-10T18:23:23.741Z,99616.38
2019-04-10T18:25:56.610Z,99619.73
2019-04-10T18:28:31.021Z,99623.66
2019-04-10T18:31:03.356Z,99626.14
2019-04-10T18:33:38.463Z,99624.06
2019-04-10T18:36:11.457Z,99627.32
2019-04-10T18:38:45.954Z,99626.73
2019-04-10T18:41:18.545Z,99635.23
2019-04-10T18:43:51.430Z,99637.23
2019-04-10T18:46:24.516Z,99632.81
2019-04-10T18:48:57.037Z,99638.89
2019-04-10T18:51:32.044Z,99638.06
2019-04-10T18:54:06.094Z,99645.89
2019-04-10T18:56:39.011Z,99643.31
2019-04-10T18:59:42.879Z,99648.34
2019-04-10T19:02:36.917Z,99653.83
2019-04-10T19:05:19.996Z,99649.83
2019-04-10T19:07:52.900Z,99648.73
2019-04-10T19:10:26.407Z,99653.49
2019-04-10T19:12:59.623Z,99656.73
2019-04-10T19:15:32.885Z,99652.66
2019-04-10T19:18:05.667Z,99652.08
2019-04-10T19:20:39.398Z,99658.08
2019-04-10T19:23:13.014Z,99652.73
2019-04-10T19:25:46.995Z,99653.00
2019-04-10T19:28:33.426Z,99652.98
2019-04-10T19:31:08.775Z,99656.98
2019-04-10T19:33:35.291Z,99658.81
2019-04-10T19:36:09.731Z,99667.41
2019-04-10T19:38:43.582Z,99667.34
2019-04-10T19:41:26.079Z,99663.67
2019-04-10T19:43:54.868Z,99665.84
2019-04-10T19:46:29.276Z,99663.83
2019-04-10T19:49:05.944Z,99670.08
2019-04-10T19:51:40.555Z,99663.90
2019-04-10T19:54:13.594Z,99667.67
2019-04-10T19:56:48.852Z,99672.67
2019-04-10T19:59:22.921Z,99671.72
2019-04-10T20:01:56.457Z,99674.22
2019-04-10T20:04:28.852Z,99674.14
2019-04-10T20:07:02.761Z,99674.47
2019-04-10T20:09:37.305Z,99671.48
2019-04-10T20:12:10.664Z,99674.06
2019-04-10T20:14:44.418Z,99675.72
2019-04-10T20:17:17.457Z,99670.48
2019-04-10T20:19:51.787Z,99675.46
2019-04-10T20:22:25.075Z,99681.91
2019-04-10T20:24:58.271Z,99682.57
2019-04-10T20:27:32.067Z,99681.45
2019-04-10T20:30:05.713Z,99683.74
2019-04-10T20:32:39.226Z,99682.84
2019-04-10T20:35:12.897Z,99682.91
2019-04-10T20:37:47.086Z,99683.08
2019-04-10T20:40:20.773Z,99685.32
2019-04-10T20:42:54.258Z,99695.13
2019-04-10T20:45:29.509Z,99687.61
2019-04-10T20:48:04.356Z,99687.52
2019-04-10T20:50:39.673Z,99690.44
2019-04-10T20:53:15.878Z,99694.02
2019-04-10T20:55:50.933Z,99693.80
2019-04-10T20:58:25.330Z,99696.23
2019-04-10T21:01:00.626Z,99707.05
2019-04-10T21:03:35.853Z,99707.22
2019-04-10T21:06:11.287Z,99717.03
2019-04-10T21:08:45.326Z,99713.50
2019-04-10T21:11:20.347Z,99717.94
2019-04-10T21:13:56.540Z,99719.64
2019-04-10T21:16:31.459Z,99724.08
2019-04-10T21:19:04.645Z,99725.29
2019-04-10T21:21:39.493Z,99730.03
2019-04-10T21:24:14.765Z,99726.03
2019-04-10T21:26:48.715Z,99735.13
2019-04-10T21:29:42.117Z,99729.91
2019-04-10T21:32:28.200Z,99739.98
2019-04-10T21:35:02.137Z,99739.64
2019-04-10T21:37:38.174Z,99733.02
2019-04-10T21:40:11.593Z,99739.59
2019-04-10T21:42:45.461Z,99739.73
2019-04-10T21:45:20.809Z,99739.63
2019-04-10T21:47:54.564Z,99744.69
2019-04-10T21:50:29.083Z,99748.59
2019-04-10T21:53:03.708Z,99744.30
2019-04-10T21:55:38.060Z,99742.03
2019-04-10T21:58:13.048Z,99745.94
2019-04-10T22:01:05.582Z,99748.59
2019-04-10T22:03:39.197Z,99747.50
2019-04-10T22:06:31.797Z,99747.91
2019-04-10T22:09:43.384Z,99748.80
2019-04-10T22:12:31.118Z,99754.56
2019-04-10T22:15:00.309Z,99756.49
2019-04-10T22:17:34.345Z,99759.98
2019-04-10T22:20:09.636Z,99760.62
2019-04-10T22:22:44.991Z,99760.45
2019-04-10T22:25:19.498Z,99765.45
2019-04-10T22:27:54.273Z,99760.95
2019-04-10T22:30:29.418Z,99762.88
2019-04-10T22:33:03.318Z,99765.47
2019-04-10T22:35:37.285Z,99761.50
2019-04-10T22:38:11.401Z,99765.22
2019-04-10T22:40:46.236Z,99763.39
2019-04-10T22:43:20.276Z,99764.35
2019-04-10T22:45:54.936Z,99756.81
2019-04-10T22:48:29.067Z,99759.84
2019-04-10T22:51:03.439Z,99757.23
2019-04-10T22:53:37.510Z,99761.23
2019-04-10T22:56:12.977Z,99763.63
2019-04-10T22:58:47.045Z,99766.28
2019-04-10T23:01:20.742Z,99762.25
2019-04-10T23:03:57.406Z,99761.20
2019-04-10T23:06:33.343Z,99764.58
2019-04-10T23:09:08.436Z,99768.67
2019-04-10T23:11:45.374Z,99768.51
2019-04-10T23:14:18.526Z,99774.59
2019-04-10T23:16:52.604Z,99767.01
2019-04-10T23:19:26.342Z,99769.03
2019-04-10T23:22:00.939Z,99767.48
2019-04-10T23:24:35.913Z,99773.88
2019-04-10T23:27:11.410Z,99774.03
2019-04-10T23:29:46.569Z,99778.25
2019-04-10T23:32:21.863Z,99778.71
2019-04-10T23:34:57.030Z,99775.48
2019-04-10T23:37:31.242Z,99775.70
2019-04-10T23:40:05.265Z,99785.79
2019-04-10T23:42:39.959Z,99779.87
2019-04-10T23:45:14.021Z,99783.66
2019-04-10T23:47:48.675Z,99784.59
2019-04-10T23:50:23.971Z,99784.98
2019-04-10T23:52:58.407Z,99790.47
2019-04-10T23:55:32.430Z,99784.31
2019-04-10T23:58:06.150Z,99789.92
